sensor_id;sensor_type;location;lat;lon;timestamp;P1;durP1;ratioP1;P2;durP2;ratioP2
48588;SDS011;34369;51.174;6.738;2023-07-29T00:02:08;24.13;;;22.52;;
48588;SDS011;34369;51.174;6.738;2023-07-29T00:04:41;24.48;;;22.77;;
48588;SDS011;34369;51.174;6.738;2023-07-29T00:07:13;24.58;;;22.85;;
48588;SDS011;34369;51.174;6.738;2023-07-29T00:09:45;25.88;;;23.83;;
48588;SDS011;34369;51.174;6.738;2023-07-29T00:12:19;24.52;;;22.65;;
48588;SDS011;34369;51.174;6.738;2023-07-29T00:14:51;24.20;;;22.52;;
48588;SDS011;34369;51.174;6.738;2023-07-29T00:17:23;26.45;;;24.65;;
48588;SDS011;34369;51.174;6.738;2023-07-29T00:19:56;24.38;;;22.67;;
48588;SDS011;34369;51.174;6.738;2023-07-29T00:22:28;23.95;;;22.30;;
48588;SDS011;34369;51.174;6.738;2023-07-29T00:25:00;25.30;;;23.50;;
48588;SDS011;34369;51.174;6.738;2023-07-29T00:27:34;25.40;;;23.20;;
48588;SDS011;34369;51.174;6.738;2023-07-29T00:30:06;24.73;;;23.02;;
48588;SDS011;34369;51.174;6.738;2023-07-29T00:32:39;24.42;;;22.83;;
48588;SDS011;34369;51.174;6.738;2023-07-29T00:35:11;24.00;;;22.40;;
48588;SDS011;34369;51.174;6.738;2023-07-29T00:37:44;24.13;;;22.52;;
48588;SDS011;34369;51.174;6.738;2023-07-29T00:40:18;24.60;;;22.90;;
48588;SDS011;34369;51.174;6.738;2023-07-29T00:42:54;25.30;;;23.60;;
48588;SDS011;34369;51.174;6.738;2023-07-29T00:45:27;24.83;;;23.15;;
48588;SDS011;34369;51.174;6.738;2023-07-29T00:48:01;24.48;;;22.63;;
48588;SDS011;34369;51.174;6.738;2023-07-29T00:50:35;25.05;;;23.10;;
48588;SDS011;34369;51.174;6.738;2023-07-29T00:53:10;25.30;;;23.60;;
48588;SDS011;34369;51.174;6.738;2023-07-29T00:55:42;24.70;;;22.90;;
48588;SDS011;34369;51.174;6.738;2023-07-29T00:58:17;24.85;;;23.05;;
48588;SDS011;34369;51.174;6.738;2023-07-29T01:00:51;25.10;;;23.42;;
48588;SDS011;34369;51.174;6.738;2023-07-29T01:03:24;25.30;;;23.58;;
48588;SDS011;34369;51.174;6.738;2023-07-29T01:05:59;25.35;;;23.55;;
48588;SDS011;34369;51.174;6.738;2023-07-29T01:08:50;24.50;;;22.88;;
48588;SDS011;34369;51.174;6.738;2023-07-29T01:11:35;25.30;;;23.40;;
48588;SDS011;34369;51.174;6.738;2023-07-29T01:14:34;24.98;;;23.27;;
48588;SDS011;34369;51.174;6.738;2023-07-29T01:17:13;24.95;;;23.25;;
48588;SDS011;34369;51.174;6.738;2023-07-29T01:19:57;25.15;;;23.35;;
48588;SDS011;34369;51.174;6.738;2023-07-29T01:22:36;24.48;;;22.77;;
48588;SDS011;34369;51.174;6.738;2023-07-29T01:25:11;25.20;;;23.25;;
48588;SDS011;34369;51.174;6.738;2023-07-29T01:27:44;24.77;;;22.92;;
48588;SDS011;34369;51.174;6.738;2023-07-29T01:30:18;25.10;;;23.40;;
48588;SDS011;34369;51.174;6.738;2023-07-29T01:32:53;25.00;;;23.30;;
48588;SDS011;34369;51.174;6.738;2023-07-29T01:35:29;24.38;;;22.75;;
48588;SDS011;34369;51.174;6.738;2023-07-29T01:38:09;24.65;;;22.85;;
48588;SDS011;34369;51.174;6.738;2023-07-29T01:40:52;24.25;;;22.65;;
48588;SDS011;34369;51.174;6.738;2023-07-29T01:43:25;24.92;;;23.15;;
48588;SDS011;34369;51.174;6.738;2023-07-29T01:45:58;24.70;;;22.98;;
48588;SDS011;34369;51.174;6.738;2023-07-29T01:48:30;25.98;;;24.27;;
48588;SDS011;34369;51.174;6.738;2023-07-29T01:51:02;25.02;;;23.17;;
48588;SDS011;34369;51.174;6.738;2023-07-29T01:53:34;25.35;;;23.65;;
48588;SDS011;34369;51.174;6.738;2023-07-29T01:56:08;25.10;;;23.40;;
48588;SDS011;34369;51.174;6.738;2023-07-29T01:58:41;25.40;;;23.60;;
48588;SDS011;34369;51.174;6.738;2023-07-29T02:01:13;25.08;;;23.33;;
48588;SDS011;34369;51.174;6.738;2023-07-29T02:03:45;24.63;;;22.92;;
48588;SDS011;34369;51.174;6.738;2023-07-29T02:06:24;25.35;;;23.55;;
48588;SDS011;34369;51.174;6.738;2023-07-29T02:08:57;25.35;;;23.35;;
48588;SDS011;34369;51.174;6.738;2023-07-29T02:11:31;24.52;;;22.83;;
48588;SDS011;34369;51.174;6.738;2023-07-29T02:14:03;25.05;;;23.33;;
48588;SDS011;34369;51.174;6.738;2023-07-29T02:16:35;24.48;;;22.77;;
48588;SDS011;34369;51.174;6.738;2023-07-29T02:19:09;24.85;;;23.08;;
48588;SDS011;34369;51.174;6.738;2023-07-29T02:21:41;24.05;;;22.33;;
48588;SDS011;34369;51.174;6.738;2023-07-29T02:24:13;24.55;;;22.85;;
48588;SDS011;34369;51.174;6.738;2023-07-29T02:26:48;24.77;;;22.98;;
48588;SDS011;34369;51.174;6.738;2023-07-29T02:29:20;24.35;;;22.65;;
48588;SDS011;34369;51.174;6.738;2023-07-29T02:31:52;24.35;;;22.23;;
48588;SDS011;34369;51.174;6.738;2023-07-29T02:34:24;24.00;;;22.30;;
48588;SDS011;34369;51.174;6.738;2023-07-29T02:36:56;24.40;;;22.58;;
48588;SDS011;34369;51.174;6.738;2023-07-29T02:39:28;25.35;;;23.40;;
48588;SDS011;34369;51.174;6.738;2023-07-29T02:42:03;24.77;;;22.90;;
48588;SDS011;34369;51.174;6.738;2023-07-29T02:44:36;24.38;;;22.67;;
48588;SDS011;34369;51.174;6.738;2023-07-29T02:47:08;24.88;;;22.98;;
48588;SDS011;34369;51.174;6.738;2023-07-29T02:49:40;24.60;;;22.90;;
48588;SDS011;34369;51.174;6.738;2023-07-29T02:52:12;24.42;;;22.67;;
48588;SDS011;34369;51.174;6.738;2023-07-29T02:54:44;24.45;;;22.65;;
48588;SDS011;34369;51.174;6.738;2023-07-29T02:57:18;25.45;;;23.45;;
48588;SDS011;34369;51.174;6.738;2023-07-29T02:59:51;24.73;;;23.13;;
48588;SDS011;34369;51.174;6.738;2023-07-29T03:02:23;25.17;;;23.20;;
48588;SDS011;34369;51.174;6.738;2023-07-29T03:04:55;24.85;;;23.17;;
48588;SDS011;34369;51.174;6.738;2023-07-29T03:07:27;24.98;;;23.27;;
48588;SDS011;34369;51.174;6.738;2023-07-29T03:10:00;24.77;;;23.00;;
48588;SDS011;34369;51.174;6.738;2023-07-29T03:12:33;23.80;;;22.20;;
48588;SDS011;34369;51.174;6.738;2023-07-29T03:15:06;25.55;;;23.75;;
48588;SDS011;34369;51.174;6.738;2023-07-29T03:17:39;25.75;;;23.90;;
48588;SDS011;34369;51.174;6.738;2023-07-29T03:20:11;26.35;;;24.55;;
48588;SDS011;34369;51.174;6.738;2023-07-29T03:22:44;24.48;;;22.77;;
48588;SDS011;34369;51.174;6.738;2023-07-29T03:25:16;24.60;;;22.90;;
48588;SDS011;34369;51.174;6.738;2023-07-29T03:27:50;25.20;;;23.20;;
48588;SDS011;34369;51.174;6.738;2023-07-29T03:30:25;24.80;;;23.10;;
48588;SDS011;34369;51.174;6.738;2023-07-29T03:32:57;25.00;;;23.25;;
48588;SDS011;34369;51.174;6.738;2023-07-29T03:35:28;25.60;;;23.60;;
48588;SDS011;34369;51.174;6.738;2023-07-29T03:38:01;25.42;;;23.35;;
48588;SDS011;34369;51.174;6.738;2023-07-29T03:40:33;24.67;;;22.98;;
48588;SDS011;34369;51.174;6.738;2023-07-29T03:43:07;25.17;;;23.38;;
48588;SDS011;34369;51.174;6.738;2023-07-29T03:45:39;24.88;;;23.17;;
48588;SDS011;34369;51.174;6.738;2023-07-29T03:48:12;25.33;;;23.63;;
48588;SDS011;34369;51.174;6.738;2023-07-29T03:50:44;25.05;;;23.35;;
48588;SDS011;34369;51.174;6.738;2023-07-29T03:53:16;25.00;;;23.30;;
48588;SDS011;34369;51.174;6.738;2023-07-29T03:55:49;24.50;;;22.80;;
48588;SDS011;34369;51.174;6.738;2023-07-29T03:58:24;25.83;;;23.90;;
48588;SDS011;34369;51.174;6.738;2023-07-29T04:00:56;25.13;;;23.40;;
48588;SDS011;34369;51.174;6.738;2023-07-29T04:03:29;24.90;;;23.20;;
48588;SDS011;34369;51.174;6.738;2023-07-29T04:06:01;25.25;;;23.42;;
48588;SDS011;34369;51.174;6.738;2023-07-29T04:08:34;25.02;;;23.33;;
48588;SDS011;34369;51.174;6.738;2023-07-29T04:11:07;25.13;;;23.38;;
48588;SDS011;34369;51.174;6.738;2023-07-29T04:13:42;25.00;;;23.20;;
48588;SDS011;34369;51.174;6.738;2023-07-29T04:16:14;24.73;;;23.00;;
48588;SDS011;34369;51.174;6.738;2023-07-29T04:18:46;25.40;;;23.60;;
48588;SDS011;34369;51.174;6.738;2023-07-29T04:21:19;25.85;;;23.73;;
48588;SDS011;34369;51.174;6.738;2023-07-29T04:23:52;25.63;;;23.83;;
48588;SDS011;34369;51.174;6.738;2023-07-29T04:26:24;25.30;;;23.60;;
48588;SDS011;34369;51.174;6.738;2023-07-29T04:28:58;25.63;;;23.67;;
48588;SDS011;34369;51.174;6.738;2023-07-29T04:31:30;24.92;;;23.02;;
48588;SDS011;34369;51.174;6.738;2023-07-29T04:34:02;25.52;;;23.50;;
48588;SDS011;34369;51.174;6.738;2023-07-29T04:36:36;25.17;;;23.38;;
48588;SDS011;34369;51.174;6.738;2023-07-29T04:39:10;25.08;;;23.35;;
48588;SDS011;34369;51.174;6.738;2023-07-29T04:41:43;24.80;;;23.10;;
48588;SDS011;34369;51.174;6.738;2023-07-29T04:44:18;25.65;;;23.85;;
48588;SDS011;34369;51.174;6.738;2023-07-29T04:46:51;25.08;;;23.08;;
48588;SDS011;34369;51.174;6.738;2023-07-29T04:49:23;24.98;;;23.25;;
48588;SDS011;34369;51.174;6.738;2023-07-29T04:51:56;25.40;;;23.70;;
48588;SDS011;34369;51.174;6.738;2023-07-29T04:54:28;26.67;;;24.48;;
48588;SDS011;34369;51.174;6.738;2023-07-29T04:57:01;25.58;;;23.77;;
48588;SDS011;34369;51.174;6.738;2023-07-29T04:59:35;26.48;;;24.38;;
48588;SDS011;34369;51.174;6.738;2023-07-29T05:02:08;26.48;;;24.58;;
48588;SDS011;34369;51.174;6.738;2023-07-29T05:04:40;25.73;;;24.00;;
48588;SDS011;34369;51.174;6.738;2023-07-29T05:07:13;25.42;;;23.67;;
48588;SDS011;34369;51.174;6.738;2023-07-29T05:09:47;24.75;;;22.92;;
48588;SDS011;34369;51.174;6.738;2023-07-29T05:12:19;25.60;;;23.80;;
48588;SDS011;34369;51.174;6.738;2023-07-29T05:14:55;24.52;;;22.83;;
48588;SDS011;34369;51.174;6.738;2023-07-29T05:17:27;25.05;;;23.35;;
48588;SDS011;34369;51.174;6.738;2023-07-29T05:19:59;25.02;;;23.33;;
48588;SDS011;34369;51.174;6.738;2023-07-29T05:22:33;25.77;;;23.88;;
48588;SDS011;34369;51.174;6.738;2023-07-29T05:25:05;25.27;;;23.52;;
48588;SDS011;34369;51.174;6.738;2023-07-29T05:27:39;25.73;;;23.92;;
48588;SDS011;34369;51.174;6.738;2023-07-29T05:30:13;25.00;;;23.30;;
48588;SDS011;34369;51.174;6.738;2023-07-29T05:32:45;25.38;;;23.67;;
48588;SDS011;34369;51.174;6.738;2023-07-29T05:35:18;26.08;;;24.27;;
48588;SDS011;34369;51.174;6.738;2023-07-29T05:37:51;25.92;;;24.23;;
48588;SDS011;34369;51.174;6.738;2023-07-29T05:40:24;25.95;;;24.15;;
48588;SDS011;34369;51.174;6.738;2023-07-29T05:42:57;24.63;;;22.92;;
48588;SDS011;34369;51.174;6.738;2023-07-29T05:45:35;25.60;;;23.80;;
48588;SDS011;34369;51.174;6.738;2023-07-29T05:48:07;26.02;;;24.13;;
48588;SDS011;34369;51.174;6.738;2023-07-29T05:50:40;25.23;;;23.52;;
48588;SDS011;34369;51.174;6.738;2023-07-29T05:53:12;25.73;;;24.02;;
48588;SDS011;34369;51.174;6.738;2023-07-29T05:55:46;24.77;;;22.98;;
48588;SDS011;34369;51.174;6.738;2023-07-29T05:58:19;26.05;;;24.15;;
48588;SDS011;34369;51.174;6.738;2023-07-29T06:00:53;25.27;;;23.58;;
48588;SDS011;34369;51.174;6.738;2023-07-29T06:03:25;24.77;;;23.02;;
48588;SDS011;34369;51.174;6.738;2023-07-29T06:05:58;25.50;;;23.80;;
48588;SDS011;34369;51.174;6.738;2023-07-29T06:08:31;24.88;;;23.08;;
48588;SDS011;34369;51.174;6.738;2023-07-29T06:11:04;25.15;;;23.35;;
48588;SDS011;34369;51.174;6.738;2023-07-29T06:13:37;25.60;;;23.70;;
48588;SDS011;34369;51.174;6.738;2023-07-29T06:16:11;25.20;;;23.50;;
48588;SDS011;34369;51.174;6.738;2023-07-29T06:18:44;24.70;;;23.00;;
48588;SDS011;34369;51.174;6.738;2023-07-29T06:21:16;25.17;;;23.38;;
48588;SDS011;34369;51.174;6.738;2023-07-29T06:23:50;25.05;;;23.35;;
48588;SDS011;34369;51.174;6.738;2023-07-29T06:26:23;24.92;;;23.23;;
48588;SDS011;34369;51.174;6.738;2023-07-29T06:28:55;24.67;;;22.98;;
48588;SDS011;34369;51.174;6.738;2023-07-29T06:31:29;24.65;;;22.88;;
48588;SDS011;34369;51.174;6.738;2023-07-29T06:34:03;25.13;;;23.42;;
48588;SDS011;34369;51.174;6.738;2023-07-29T06:36:37;24.83;;;22.88;;
48588;SDS011;34369;51.174;6.738;2023-07-29T06:39:09;24.50;;;22.60;;
48588;SDS011;34369;51.174;6.738;2023-07-29T06:41:41;25.13;;;23.33;;
48588;SDS011;34369;51.174;6.738;2023-07-29T06:44:14;24.85;;;23.10;;
48588;SDS011;34369;51.174;6.738;2023-07-29T06:46:48;24.00;;;22.30;;
48588;SDS011;34369;51.174;6.738;2023-07-29T06:49:23;25.40;;;23.65;;
48588;SDS011;34369;51.174;6.738;2023-07-29T06:51:56;24.92;;;23.13;;
48588;SDS011;34369;51.174;6.738;2023-07-29T06:54:28;25.08;;;23.33;;
48588;SDS011;34369;51.174;6.738;2023-07-29T06:57:01;25.27;;;23.58;;
48588;SDS011;34369;51.174;6.738;2023-07-29T06:59:33;25.00;;;23.30;;
48588;SDS011;34369;51.174;6.738;2023-07-29T07:02:08;25.52;;;23.73;;
48588;SDS011;34369;51.174;6.738;2023-07-29T07:04:40;25.23;;;23.52;;
48588;SDS011;34369;51.174;6.738;2023-07-29T07:07:14;25.00;;;23.30;;
48588;SDS011;34369;51.174;6.738;2023-07-29T07:09:47;24.83;;;23.13;;
48588;SDS011;34369;51.174;6.738;2023-07-29T07:12:20;24.75;;;23.05;;
48588;SDS011;34369;51.174;6.738;2023-07-29T07:14:54;24.65;;;22.95;;
48588;SDS011;34369;51.174;6.738;2023-07-29T07:17:28;24.40;;;22.63;;
48588;SDS011;34369;51.174;6.738;2023-07-29T07:20:00;24.40;;;22.70;;
48588;SDS011;34369;51.174;6.738;2023-07-29T07:22:33;24.67;;;22.98;;
48588;SDS011;34369;51.174;6.738;2023-07-29T07:25:05;23.85;;;22.15;;
48588;SDS011;34369;51.174;6.738;2023-07-29T07:27:42;24.45;;;22.75;;
48588;SDS011;34369;51.174;6.738;2023-07-29T07:30:14;24.33;;;22.63;;
48588;SDS011;34369;51.174;6.738;2023-07-29T07:32:47;23.50;;;21.90;;
48588;SDS011;34369;51.174;6.738;2023-07-29T07:35:21;23.85;;;22.25;;
48588;SDS011;34369;51.174;6.738;2023-07-29T07:37:55;24.52;;;22.67;;
48588;SDS011;34369;51.174;6.738;2023-07-29T07:40:28;25.20;;;23.40;;
48588;SDS011;34369;51.174;6.738;2023-07-29T07:43:01;24.60;;;22.90;;
48588;SDS011;34369;51.174;6.738;2023-07-29T07:45:34;24.02;;;22.23;;
48588;SDS011;34369;51.174;6.738;2023-07-29T07:48:08;24.00;;;22.30;;
48588;SDS011;34369;51.174;6.738;2023-07-29T07:53:15;23.98;;;22.27;;
48588;SDS011;34369;51.174;6.738;2023-07-29T07:55:47;24.73;;;23.02;;
48588;SDS011;34369;51.174;6.738;2023-07-29T07:58:19;23.73;;;22.02;;
48588;SDS011;34369;51.174;6.738;2023-07-29T08:00:51;23.40;;;21.67;;
48588;SDS011;34369;51.174;6.738;2023-07-29T08:03:26;23.20;;;21.40;;
48588;SDS011;34369;51.174;6.738;2023-07-29T08:05:58;22.13;;;20.52;;
48588;SDS011;34369;51.174;6.738;2023-07-29T08:08:30;22.00;;;20.40;;
48588;SDS011;34369;51.174;6.738;2023-07-29T08:11:04;21.17;;;19.58;;
48588;SDS011;34369;51.174;6.738;2023-07-29T08:13:37;21.73;;;20.13;;
48588;SDS011;34369;51.174;6.738;2023-07-29T08:16:10;20.73;;;19.13;;
48588;SDS011;34369;51.174;6.738;2023-07-29T08:18:45;20.60;;;19.10;;
48588;SDS011;34369;51.174;6.738;2023-07-29T08:21:17;20.02;;;18.23;;
48588;SDS011;34369;51.174;6.738;2023-07-29T08:23:49;20.20;;;18.70;;
48588;SDS011;34369;51.174;6.738;2023-07-29T08:26:22;20.20;;;18.70;;
48588;SDS011;34369;51.174;6.738;2023-07-29T08:28:55;20.23;;;18.77;;
48588;SDS011;34369;51.174;6.738;2023-07-29T08:31:28;20.05;;;18.55;;
48588;SDS011;34369;51.174;6.738;2023-07-29T08:34:04;20.10;;;18.50;;
48588;SDS011;34369;51.174;6.738;2023-07-29T08:36:38;20.05;;;18.65;;
48588;SDS011;34369;51.174;6.738;2023-07-29T08:39:10;19.80;;;18.30;;
48588;SDS011;34369;51.174;6.738;2023-07-29T08:41:45;19.25;;;17.85;;
48588;SDS011;34369;51.174;6.738;2023-07-29T08:44:26;19.13;;;17.73;;
48588;SDS011;34369;51.174;6.738;2023-07-29T08:47:02;19.17;;;17.77;;
48588;SDS011;34369;51.174;6.738;2023-07-29T08:49:37;19.50;;;18.10;;
48588;SDS011;34369;51.174;6.738;2023-07-29T08:52:09;19.60;;;18.10;;
48588;SDS011;34369;51.174;6.738;2023-07-29T08:54:43;18.75;;;17.35;;
48588;SDS011;34369;51.174;6.738;2023-07-29T08:57:16;19.60;;;18.10;;
48588;SDS011;34369;51.174;6.738;2023-07-29T08:59:48;18.90;;;17.50;;
48588;SDS011;34369;51.174;6.738;2023-07-29T09:02:21;19.00;;;17.50;;
48588;SDS011;34369;51.174;6.738;2023-07-29T09:04:55;19.55;;;18.05;;
48588;SDS011;34369;51.174;6.738;2023-07-29T09:07:27;19.58;;;18.17;;
48588;SDS011;34369;51.174;6.738;2023-07-29T09:10:00;20.70;;;19.20;;
48588;SDS011;34369;51.174;6.738;2023-07-29T09:12:33;20.67;;;19.10;;
48588;SDS011;34369;51.174;6.738;2023-07-29T09:15:06;21.10;;;19.50;;
48588;SDS011;34369;51.174;6.738;2023-07-29T09:17:40;21.40;;;19.88;;
48588;SDS011;34369;51.174;6.738;2023-07-29T09:20:14;21.52;;;20.02;;
48588;SDS011;34369;51.174;6.738;2023-07-29T09:22:46;21.17;;;19.67;;
48588;SDS011;34369;51.174;6.738;2023-07-29T09:25:22;21.73;;;20.23;;
48588;SDS011;34369;51.174;6.738;2023-07-29T09:27:58;21.63;;;20.13;;
48588;SDS011;34369;51.174;6.738;2023-07-29T09:30:31;21.77;;;20.27;;
48588;SDS011;34369;51.174;6.738;2023-07-29T09:33:03;21.33;;;19.55;;
48588;SDS011;34369;51.174;6.738;2023-07-29T09:35:38;20.98;;;19.48;;
48588;SDS011;34369;51.174;6.738;2023-07-29T09:38:13;21.20;;;19.70;;
48588;SDS011;34369;51.174;6.738;2023-07-29T09:40:46;21.92;;;20.42;;
48588;SDS011;34369;51.174;6.738;2023-07-29T09:43:18;21.20;;;19.70;;
48588;SDS011;34369;51.174;6.738;2023-07-29T09:45:51;21.67;;;20.17;;
48588;SDS011;34369;51.174;6.738;2023-07-29T09:48:24;21.73;;;20.17;;
48588;SDS011;34369;51.174;6.738;2023-07-29T09:50:57;21.83;;;20.23;;
48588;SDS011;34369;51.174;6.738;2023-07-29T09:53:30;21.80;;;20.30;;
48588;SDS011;34369;51.174;6.738;2023-07-29T09:56:02;21.95;;;20.40;;
48588;SDS011;34369;51.174;6.738;2023-07-29T09:58:35;22.55;;;20.85;;
48588;SDS011;34369;51.174;6.738;2023-07-29T10:01:09;22.02;;;20.42;;
48588;SDS011;34369;51.174;6.738;2023-07-29T10:03:42;22.77;;;21.17;;
48588;SDS011;34369;51.174;6.738;2023-07-29T10:06:19;22.02;;;20.52;;
48588;SDS011;34369;51.174;6.738;2023-07-29T10:08:51;21.98;;;20.40;;
48588;SDS011;34369;51.174;6.738;2023-07-29T10:11:26;22.52;;;20.92;;
48588;SDS011;34369;51.174;6.738;2023-07-29T10:13:59;21.70;;;20.20;;
48588;SDS011;34369;51.174;6.738;2023-07-29T10:16:32;22.00;;;20.50;;
48588;SDS011;34369;51.174;6.738;2023-07-29T10:19:10;21.55;;;20.05;;
48588;SDS011;34369;51.174;6.738;2023-07-29T10:21:46;21.83;;;20.23;;
48588;SDS011;34369;51.174;6.738;2023-07-29T10:24:22;21.55;;;19.95;;
48588;SDS011;34369;51.174;6.738;2023-07-29T10:27:03;22.20;;;20.60;;
48588;SDS011;34369;51.174;6.738;2023-07-29T10:29:40;22.70;;;20.90;;
48588;SDS011;34369;51.174;6.738;2023-07-29T10:32:17;23.63;;;21.83;;
48588;SDS011;34369;51.174;6.738;2023-07-29T10:34:56;25.25;;;23.20;;
48588;SDS011;34369;51.174;6.738;2023-07-29T10:37:32;22.45;;;20.75;;
48588;SDS011;34369;51.174;6.738;2023-07-29T10:40:08;22.15;;;20.58;;
48588;SDS011;34369;51.174;6.738;2023-07-29T10:45:39;22.58;;;20.98;;
48588;SDS011;34369;51.174;6.738;2023-07-29T10:48:39;22.27;;;20.67;;
48588;SDS011;34369;51.174;6.738;2023-07-29T10:51:22;21.83;;;20.33;;
48588;SDS011;34369;51.174;6.738;2023-07-29T10:54:12;21.33;;;19.73;;
48588;SDS011;34369;51.174;6.738;2023-07-29T10:56:48;22.23;;;20.63;;
48588;SDS011;34369;51.174;6.738;2023-07-29T10:59:52;20.77;;;19.27;;
48588;SDS011;34369;51.174;6.738;2023-07-29T11:02:30;21.52;;;19.88;;
48588;SDS011;34369;51.174;6.738;2023-07-29T11:05:05;20.92;;;19.42;;
48588;SDS011;34369;51.174;6.738;2023-07-29T11:07:43;20.55;;;18.95;;
48588;SDS011;34369;51.174;6.738;2023-07-29T11:10:18;20.92;;;19.42;;
48588;SDS011;34369;51.174;6.738;2023-07-29T11:12:50;21.17;;;19.58;;
48588;SDS011;34369;51.174;6.738;2023-07-29T11:15:25;21.23;;;19.70;;
48588;SDS011;34369;51.174;6.738;2023-07-29T11:18:01;21.13;;;19.63;;
48588;SDS011;34369;51.174;6.738;2023-07-29T11:20:34;21.40;;;19.90;;
48588;SDS011;34369;51.174;6.738;2023-07-29T11:23:07;21.50;;;19.90;;
48588;SDS011;34369;51.174;6.738;2023-07-29T11:25:44;21.58;;;19.98;;
48588;SDS011;34369;51.174;6.738;2023-07-29T11:28:20;21.88;;;20.38;;
48588;SDS011;34369;51.174;6.738;2023-07-29T11:30:53;22.23;;;20.65;;
48588;SDS011;34369;51.174;6.738;2023-07-29T11:33:27;22.23;;;20.63;;
48588;SDS011;34369;51.174;6.738;2023-07-29T11:36:00;21.90;;;20.15;;
48588;SDS011;34369;51.174;6.738;2023-07-29T11:38:33;21.40;;;19.90;;
48588;SDS011;34369;51.174;6.738;2023-07-29T11:41:09;21.60;;;20.08;;
48588;SDS011;34369;51.174;6.738;2023-07-29T11:43:41;20.92;;;19.42;;
48588;SDS011;34369;51.174;6.738;2023-07-29T11:46:22;20.80;;;19.30;;
48588;SDS011;34369;51.174;6.738;2023-07-29T11:48:56;21.02;;;19.52;;
48588;SDS011;34369;51.174;6.738;2023-07-29T11:51:30;21.58;;;19.98;;
48588;SDS011;34369;51.174;6.738;2023-07-29T11:54:03;21.10;;;19.60;;
48588;SDS011;34369;51.174;6.738;2023-07-29T11:56:40;21.58;;;19.98;;
48588;SDS011;34369;51.174;6.738;2023-07-29T11:59:14;20.45;;;18.95;;
48588;SDS011;34369;51.174;6.738;2023-07-29T12:01:47;21.17;;;19.48;;
48588;SDS011;34369;51.174;6.738;2023-07-29T12:04:19;20.00;;;18.50;;
48588;SDS011;34369;51.174;6.738;2023-07-29T12:06:52;20.10;;;18.60;;
48588;SDS011;34369;51.174;6.738;2023-07-29T12:09:26;20.50;;;19.00;;
48588;SDS011;34369;51.174;6.738;2023-07-29T12:12:05;21.08;;;19.48;;
48588;SDS011;34369;51.174;6.738;2023-07-29T12:14:43;20.55;;;19.05;;
48588;SDS011;34369;51.174;6.738;2023-07-29T12:17:17;20.50;;;19.00;;
48588;SDS011;34369;51.174;6.738;2023-07-29T12:19:53;20.48;;;18.92;;
48588;SDS011;34369;51.174;6.738;2023-07-29T12:22:30;20.75;;;19.15;;
48588;SDS011;34369;51.174;6.738;2023-07-29T12:25:03;20.40;;;18.90;;
48588;SDS011;34369;51.174;6.738;2023-07-29T12:27:39;20.50;;;19.00;;
48588;SDS011;34369;51.174;6.738;2023-07-29T12:30:16;20.48;;;18.88;;
48588;SDS011;34369;51.174;6.738;2023-07-29T12:32:56;20.23;;;18.73;;
48588;SDS011;34369;51.174;6.738;2023-07-29T12:35:38;22.45;;;20.30;;
48588;SDS011;34369;51.174;6.738;2023-07-29T12:38:20;20.67;;;19.10;;
48588;SDS011;34369;51.174;6.738;2023-07-29T12:40:57;20.30;;;18.80;;
48588;SDS011;34369;51.174;6.738;2023-07-29T12:43:35;21.08;;;19.58;;
48588;SDS011;34369;51.174;6.738;2023-07-29T12:46:09;20.25;;;18.77;;
48588;SDS011;34369;51.174;6.738;2023-07-29T12:48:42;21.42;;;19.73;;
48588;SDS011;34369;51.174;6.738;2023-07-29T12:51:15;21.33;;;19.73;;
48588;SDS011;34369;51.174;6.738;2023-07-29T12:53:49;21.08;;;19.58;;
48588;SDS011;34369;51.174;6.738;2023-07-29T12:56:22;21.38;;;19.77;;
48588;SDS011;34369;51.174;6.738;2023-07-29T12:58:56;21.60;;;20.00;;
48588;SDS011;34369;51.174;6.738;2023-07-29T13:01:30;21.30;;;19.73;;
48588;SDS011;34369;51.174;6.738;2023-07-29T13:04:03;22.08;;;20.58;;
48588;SDS011;34369;51.174;6.738;2023-07-29T13:06:35;22.30;;;20.70;;
48588;SDS011;34369;51.174;6.738;2023-07-29T13:09:08;28.30;;;20.42;;
48588;SDS011;34369;51.174;6.738;2023-07-29T13:11:43;21.35;;;19.85;;
48588;SDS011;34369;51.174;6.738;2023-07-29T13:14:17;21.58;;;19.98;;
48588;SDS011;34369;51.174;6.738;2023-07-29T13:16:49;21.80;;;20.20;;
48588;SDS011;34369;51.174;6.738;2023-07-29T13:19:22;21.92;;;20.33;;
48588;SDS011;34369;51.174;6.738;2023-07-29T13:21:55;21.60;;;20.08;;
48588;SDS011;34369;51.174;6.738;2023-07-29T13:24:28;21.38;;;19.88;;
48588;SDS011;34369;51.174;6.738;2023-07-29T13:27:03;21.70;;;20.10;;
48588;SDS011;34369;51.174;6.738;2023-07-29T13:29:42;21.83;;;20.23;;
48588;SDS011;34369;51.174;6.738;2023-07-29T13:32:19;22.73;;;21.00;;
48588;SDS011;34369;51.174;6.738;2023-07-29T13:34:52;22.40;;;20.70;;
48588;SDS011;34369;51.174;6.738;2023-07-29T13:37:25;22.90;;;21.30;;
48588;SDS011;34369;51.174;6.738;2023-07-29T13:39:57;22.50;;;20.90;;
48588;SDS011;34369;51.174;6.738;2023-07-29T13:42:30;22.23;;;20.52;;
48588;SDS011;34369;51.174;6.738;2023-07-29T13:45:06;21.75;;;20.15;;
48588;SDS011;34369;51.174;6.738;2023-07-29T13:47:41;21.83;;;20.27;;
48588;SDS011;34369;51.174;6.738;2023-07-29T13:50:13;21.90;;;20.30;;
48588;SDS011;34369;51.174;6.738;2023-07-29T13:52:48;21.98;;;20.27;;
48588;SDS011;34369;51.174;6.738;2023-07-29T13:55:21;22.38;;;20.70;;
48588;SDS011;34369;51.174;6.738;2023-07-29T13:57:53;21.80;;;19.98;;
48588;SDS011;34369;51.174;6.738;2023-07-29T14:00:27;24.83;;;20.75;;
48588;SDS011;34369;51.174;6.738;2023-07-29T14:02:59;22.83;;;21.13;;
48588;SDS011;34369;51.174;6.738;2023-07-29T14:05:32;23.67;;;21.73;;
48588;SDS011;34369;51.174;6.738;2023-07-29T14:08:04;22.95;;;21.10;;
48588;SDS011;34369;51.174;6.738;2023-07-29T14:10:36;23.50;;;21.70;;
48588;SDS011;34369;51.174;6.738;2023-07-29T14:13:08;22.80;;;21.20;;
48588;SDS011;34369;51.174;6.738;2023-07-29T14:15:42;23.02;;;21.42;;
48588;SDS011;34369;51.174;6.738;2023-07-29T14:18:15;23.00;;;21.30;;
48588;SDS011;34369;51.174;6.738;2023-07-29T14:20:47;23.88;;;22.08;;
48588;SDS011;34369;51.174;6.738;2023-07-29T14:23:21;22.17;;;20.58;;
48588;SDS011;34369;51.174;6.738;2023-07-29T14:25:54;22.88;;;21.08;;
48588;SDS011;34369;51.174;6.738;2023-07-29T14:28:26;22.85;;;21.25;;
48588;SDS011;34369;51.174;6.738;2023-07-29T14:31:00;22.63;;;21.02;;
48588;SDS011;34369;51.174;6.738;2023-07-29T14:33:32;23.20;;;21.55;;
48588;SDS011;34369;51.174;6.738;2023-07-29T14:36:05;22.38;;;20.77;;
48588;SDS011;34369;51.174;6.738;2023-07-29T14:38:38;22.70;;;21.00;;
48588;SDS011;34369;51.174;6.738;2023-07-29T14:41:11;22.85;;;21.25;;
48588;SDS011;34369;51.174;6.738;2023-07-29T14:43:44;22.70;;;21.10;;
48588;SDS011;34369;51.174;6.738;2023-07-29T14:46:20;22.60;;;20.95;;
48588;SDS011;34369;51.174;6.738;2023-07-29T14:48:53;23.00;;;21.40;;
48588;SDS011;34369;51.174;6.738;2023-07-29T14:51:27;23.73;;;21.88;;
48588;SDS011;34369;51.174;6.738;2023-07-29T14:54:02;23.35;;;21.30;;
48588;SDS011;34369;51.174;6.738;2023-07-29T14:56:36;23.20;;;20.98;;
48588;SDS011;34369;51.174;6.738;2023-07-29T14:59:08;22.73;;;21.02;;
48588;SDS011;34369;51.174;6.738;2023-07-29T15:01:42;21.77;;;20.17;;
48588;SDS011;34369;51.174;6.738;2023-07-29T15:04:14;22.30;;;20.70;;
48588;SDS011;34369;51.174;6.738;2023-07-29T15:06:48;22.42;;;20.80;;